Time;durP1;ratioP1;P1;durP2;ratioP2;P2;SDS_P1;SDS_P2;PMS_P1;PMS_P2;Temp;Humidity;BMP_temperature;BMP_pressure;BME280_temperature;BME280_humidity;BME280_pressure;Samples;Min_cycle;Max_cycle;Signal;HPM_P1;HPM_P2
2023/09/28 00:02:43;;;;;;;4.33;3.93;;;;;;;;;;5054314;28;20234;-82
2023/09/28 00:05:12;;;;;;;7.47;6.77;;;;;;;;;;5055014;28;20291;-83
2023/09/28 00:07:42;;;;;;;7.10;6.40;;;;;;;;;;5054611;28;20294;-82
2023/09/28 00:10:11;;;;;;;7.87;7.07;;;;;;;;;;5054706;28;20271;-82
2023/09/28 00:12:41;;;;;;;5.97;4.53;;;;;;;;;;5054708;28;20203;-83
2023/09/28 00:15:09;;;;;;;11.53;7.70;;;;;;;;;;5054593;28;20205;-82
2023/09/28 00:17:39;;;;;;;8.27;7.47;;;;;;;;;;5054327;28;20300;-81
2023/09/28 00:20:09;;;;;;;7.17;6.23;;;;;;;;;;5054280;28;20208;-82
2023/09/28 00:22:38;;;;;;;7.70;6.67;;;;;;;;;;5054569;28;20293;-82
2023/09/28 00:25:10;;;;;;;8.90;7.47;;;;;;;;;;5054932;28;20218;-83
2023/09/28 00:27:39;;;;;;;6.73;6.03;;;;;;;;;;5053856;28;20198;-82
2023/09/28 00:30:09;;;;;;;8.13;5.50;;;;;;;;;;5054275;28;20190;-82
2023/09/28 00:32:37;;;;;;;5.47;4.37;;;;;;;;;;5054683;28;20260;-83
2023/09/28 00:35:06;;;;;;;5.57;4.90;;;;;;;;;;5054234;28;20225;-83
2023/09/28 00:37:34;;;;;;;2.57;2.33;;;;;;;;;;5053831;28;20253;-83
2023/09/28 00:40:08;;;;;;;5.20;4.10;;;;;;;;;;5054367;28;20202;-82
2023/09/28 00:42:38;;;;;;;7.07;5.00;;;;;;;;;;5054384;28;20198;-83
2023/09/28 00:45:06;;;;;;;5.97;4.70;;;;;;;;;;5053826;28;20222;-83
2023/09/28 00:47:36;;;;;;;4.10;3.70;;;;;;;;;;5053610;28;20221;-83
2023/09/28 00:50:04;;;;;;;3.67;2.77;;;;;;;;;;5053712;28;20209;-83
2023/09/28 00:52:33;;;;;;;5.63;4.07;;;;;;;;;;5054263;28;20207;-82
2023/09/28 00:55:01;;;;;;;4.63;4.03;;;;;;;;;;5053818;28;20328;-82
2023/09/28 00:57:33;;;;;;;4.40;4.00;;;;;;;;;;5053555;28;20205;-83
2023/09/28 01:00:18;;;;;;;4.47;3.40;;;;;;;;;;5054216;28;20208;-83
2023/09/28 01:02:50;;;;;;;7.67;4.97;;;;;;;;;;5053438;28;20238;-83
2023/09/28 01:05:18;;;;;;;4.20;3.80;;;;;;;;;;5052878;28;20236;-83
2023/09/28 01:07:47;;;;;;;5.23;4.17;;;;;;;;;;5053449;28;20201;-82
2023/09/28 01:10:18;;;;;;;4.97;4.07;;;;;;;;;;5053811;28;20203;-82
2023/09/28 01:12:48;;;;;;;8.57;4.53;;;;;;;;;;5053278;28;20223;-82
2023/09/28 01:15:18;;;;;;;8.17;3.97;;;;;;;;;;5053205;28;20208;-83
2023/09/28 01:17:45;;;;;;;5.03;3.93;;;;;;;;;;5053020;28;20193;-82
2023/09/28 01:20:18;;;;;;;9.53;4.77;;;;;;;;;;5053637;28;20196;-80
2023/09/28 01:22:49;;;;;;;5.13;3.73;;;;;;;;;;5053051;28;20257;-81
2023/09/28 01:25:18;;;;;;;11.30;4.97;;;;;;;;;;5053155;28;20337;-80
2023/09/28 01:27:46;;;;;;;8.83;4.93;;;;;;;;;;5053474;28;20206;-81
2023/09/28 01:30:16;;;;;;;18.20;5.07;;;;;;;;;;5053508;28;20292;-81
2023/09/28 01:32:43;;;;;;;6.70;3.23;;;;;;;;;;5052859;28;20225;-82
2023/09/28 01:35:12;;;;;;;5.37;3.47;;;;;;;;;;5053023;28;20202;-82
2023/09/28 01:37:45;;;;;;;5.63;2.80;;;;;;;;;;5052823;28;20214;-83
2023/09/28 01:40:16;;;;;;;1.40;1.27;;;;;;;;;;5052955;28;20200;-83
2023/09/28 01:42:44;;;;;;;9.10;4.27;;;;;;;;;;5052717;28;20203;-82
2023/09/28 01:45:14;;;;;;;8.53;4.13;;;;;;;;;;5053031;28;20230;-83
2023/09/28 01:47:42;;;;;;;6.40;3.17;;;;;;;;;;5053182;28;20210;-82
2023/09/28 01:50:11;;;;;;;2.77;1.70;;;;;;;;;;5052521;28;20300;-83
2023/09/28 01:52:38;;;;;;;2.47;1.47;;;;;;;;;;5052941;28;20213;-83
2023/09/28 01:55:07;;;;;;;8.30;4.07;;;;;;;;;;5053193;28;20198;-82
2023/09/28 01:57:37;;;;;;;10.20;3.03;;;;;;;;;;5052808;28;20199;-82
2023/09/28 02:00:12;;;;;;;4.93;2.57;;;;;;;;;;5052514;28;20200;-81
2023/09/28 02:02:41;;;;;;;2.97;1.63;;;;;;;;;;5052381;28;20256;-81
2023/09/28 02:05:11;;;;;;;5.90;2.57;;;;;;;;;;5052447;28;20217;-80
2023/09/28 02:07:39;;;;;;;8.73;3.60;;;;;;;;;;5052546;28;20206;-81
2023/09/28 02:10:09;;;;;;;5.53;2.47;;;;;;;;;;5052250;28;20212;-81
2023/09/28 02:12:40;;;;;;;1.33;1.23;;;;;;;;;;5052356;28;20300;-80
2023/09/28 02:15:09;;;;;;;4.33;3.37;;;;;;;;;;5052509;28;20201;-80
2023/09/28 02:17:38;;;;;;;13.47;2.27;;;;;;;;;;5052522;28;20386;-80
2023/09/28 02:20:09;;;;;;;6.17;1.90;;;;;;;;;;5051831;28;20211;-81
2023/09/28 02:22:43;;;;;;;4.50;2.43;;;;;;;;;;5052870;28;20394;-81
2023/09/28 02:25:14;;;;;;;5.00;1.77;;;;;;;;;;5052061;28;20293;-81
2023/09/28 02:27:43;;;;;;;6.07;1.47;;;;;;;;;;5051446;28;20244;-81
2023/09/28 02:30:14;;;;;;;5.63;2.33;;;;;;;;;;5052168;28;20204;-81
2023/09/28 02:32:43;;;;;;;6.00;1.37;;;;;;;;;;5052270;28;20201;-81
2023/09/28 02:35:14;;;;;;;11.30;3.40;;;;;;;;;;5052127;28;20392;-80
2023/09/28 02:37:43;;;;;;;5.57;2.47;;;;;;;;;;5051581;28;20222;-81
2023/09/28 02:40:13;;;;;;;2.67;1.30;;;;;;;;;;5051565;28;20201;-81
2023/09/28 02:42:40;;;;;;;8.47;2.10;;;;;;;;;;5052136;28;20201;-80
2023/09/28 02:45:12;;;;;;;4.80;2.10;;;;;;;;;;5051863;28;20229;-80
2023/09/28 02:47:40;;;;;;;4.53;1.83;;;;;;;;;;5051678;28;20205;-80
2023/09/28 02:50:10;;;;;;;5.13;2.03;;;;;;;;;;5052209;28;20201;-81
2023/09/28 02:52:38;;;;;;;2.57;1.30;;;;;;;;;;5052175;28;20224;-81
2023/09/28 02:55:08;;;;;;;14.27;1.33;;;;;;;;;;5051834;28;20202;-81
2023/09/28 02:57:35;;;;;;;4.43;1.37;;;;;;;;;;5051651;28;20252;-80
2023/09/28 03:00:12;;;;;;;7.87;1.90;;;;;;;;;;5051677;28;20209;-81
2023/09/28 03:02:41;;;;;;;3.50;1.27;;;;;;;;;;5051511;28;20229;-81
2023/09/28 03:05:09;;;;;;;10.20;2.40;;;;;;;;;;5050994;28;20234;-81
2023/09/28 03:07:39;;;;;;;10.20;2.57;;;;;;;;;;5051578;28;20273;-81
2023/09/28 03:10:10;;;;;;;6.47;1.43;;;;;;;;;;5051592;28;20208;-81
2023/09/28 03:12:38;;;;;;;8.23;2.47;;;;;;;;;;5051699;28;20272;-80
2023/09/28 03:15:10;;;;;;;14.13;3.77;;;;;;;;;;5051210;28;20260;-81
2023/09/28 03:17:39;;;;;;;11.67;3.97;;;;;;;;;;5051913;28;20202;-81
2023/09/28 03:20:13;;;;;;;10.73;3.43;;;;;;;;;;5051793;28;20208;-81
2023/09/28 03:22:42;;;;;;;3.23;2.83;;;;;;;;;;5051257;28;20293;-81
2023/09/28 03:25:16;;;;;;;11.60;2.70;;;;;;;;;;5054657;28;20227;-81
2023/09/28 03:27:44;;;;;;;11.10;3.47;;;;;;;;;;5055481;28;20300;-81
2023/09/28 03:30:14;;;;;;;1.50;1.20;;;;;;;;;;5055452;28;20202;-81
2023/09/28 03:32:42;;;;;;;10.07;2.83;;;;;;;;;;5055164;28;20202;-81
2023/09/28 03:35:12;;;;;;;21.30;5.73;;;;;;;;;;5055200;28;20231;-80
2023/09/28 03:37:41;;;;;;;12.20;3.53;;;;;;;;;;5055424;28;20226;-81
2023/09/28 03:40:11;;;;;;;9.03;3.60;;;;;;;;;;5055257;28;20248;-81
2023/09/28 03:42:40;;;;;;;16.37;3.43;;;;;;;;;;5054484;28;20186;-80
2023/09/28 03:45:10;;;;;;;8.37;1.97;;;;;;;;;;5055114;28;20223;-81
2023/09/28 03:47:39;;;;;;;11.50;3.17;;;;;;;;;;5055411;28;20223;-82
2023/09/28 03:50:10;;;;;;;8.50;2.93;;;;;;;;;;5055573;28;20208;-82
2023/09/28 03:52:40;;;;;;;7.70;3.03;;;;;;;;;;5055042;28;20268;-82
2023/09/28 03:55:10;;;;;;;14.40;3.70;;;;;;;;;;5055430;28;20195;-82
2023/09/28 03:57:39;;;;;;;12.60;3.17;;;;;;;;;;5054830;28;20195;-83
2023/09/28 04:00:12;;;;;;;6.37;2.17;;;;;;;;;;5055021;28;20225;-83
2023/09/28 04:02:41;;;;;;;1.60;0.93;;;;;;;;;;5054563;28;20262;-83
2023/09/28 04:05:10;;;;;;;34.17;3.63;;;;;;;;;;5054949;28;20280;-83
2023/09/28 04:07:41;;;;;;;10.03;3.13;;;;;;;;;;5054891;28;20206;-83
2023/09/28 04:10:11;;;;;;;24.63;6.27;;;;;;;;;;5054436;28;20237;-83
2023/09/28 04:12:40;;;;;;;4.53;1.40;;;;;;;;;;5054685;28;20248;-83
2023/09/28 04:15:09;;;;;;;17.17;4.37;;;;;;;;;;5054831;28;20203;-83
2023/09/28 04:17:38;;;;;;;8.00;1.83;;;;;;;;;;5054587;28;20227;-83
2023/09/28 04:20:12;;;;;;;15.03;3.53;;;;;;;;;;5054247;28;20197;-82
2023/09/28 04:22:43;;;;;;;11.27;5.13;;;;;;;;;;5054575;28;20205;-82
2023/09/28 04:25:12;;;;;;;2.93;2.17;;;;;;;;;;5054744;28;20219;-82
2023/09/28 04:27:40;;;;;;;2.43;1.03;;;;;;;;;;5054370;28;20201;-85
2023/09/28 04:30:09;;;;;;;4.40;2.23;;;;;;;;;;5053964;28;20205;-82
2023/09/28 04:32:38;;;;;;;15.53;3.87;;;;;;;;;;5054329;28;20202;-82
2023/09/28 04:35:10;;;;;;;14.93;2.50;;;;;;;;;;5054114;28;20204;-83
2023/09/28 04:37:39;;;;;;;12.77;3.37;;;;;;;;;;5054000;28;20226;-82
2023/09/28 04:40:10;;;;;;;20.43;4.37;;;;;;;;;;5053984;28;20213;-82
2023/09/28 04:42:39;;;;;;;1.30;0.87;;;;;;;;;;5054523;28;20217;-83
2023/09/28 04:45:09;;;;;;;14.47;3.87;;;;;;;;;;5054483;28;20222;-82
2023/09/28 04:47:38;;;;;;;6.43;1.80;;;;;;;;;;5053667;28;20194;-82
2023/09/28 04:50:08;;;;;;;11.33;2.33;;;;;;;;;;5054558;28;20248;-82
2023/09/28 04:52:37;;;;;;;4.73;1.60;;;;;;;;;;5054330;28;20205;-82
2023/09/28 04:55:06;;;;;;;5.13;2.90;;;;;;;;;;5054090;28;20198;-83
2023/09/28 04:57:37;;;;;;;7.87;2.00;;;;;;;;;;5053318;28;20225;-82
2023/09/28 05:00:08;;;;;;;14.83;4.80;;;;;;;;;;5053956;28;20202;-82
2023/09/28 05:02:37;;;;;;;10.53;2.70;;;;;;;;;;5053651;28;20293;-82
2023/09/28 05:05:10;;;;;;;5.10;2.00;;;;;;;;;;5054033;28;20201;-82
2023/09/28 05:07:39;;;;;;;7.37;1.77;;;;;;;;;;5053690;28;20202;-82
2023/09/28 05:10:09;;;;;;;1.30;0.50;;;;;;;;;;5053987;28;20212;-83
2023/09/28 05:12:39;;;;;;;24.77;3.60;;;;;;;;;;5054137;28;20206;-83
2023/09/28 05:15:08;;;;;;;21.90;3.57;;;;;;;;;;5053130;28;20229;-82
2023/09/28 05:17:37;;;;;;;2.63;1.17;;;;;;;;;;5053340;28;20198;-82
2023/09/28 05:20:06;;;;;;;7.93;1.33;;;;;;;;;;5054056;28;20237;-82
2023/09/28 05:22:35;;;;;;;5.47;1.67;;;;;;;;;;5053600;28;20194;-82
2023/09/28 05:25:03;;;;;;;3.80;1.73;;;;;;;;;;5052963;28;20202;-85
2023/09/28 05:27:33;;;;;;;11.87;2.67;;;;;;;;;;5053470;28;20206;-83
2023/09/28 05:30:03;;;;;;;12.67;1.50;;;;;;;;;;5053656;28;20202;-83
2023/09/28 05:32:32;;;;;;;8.70;2.63;;;;;;;;;;5054373;28;20215;-83
2023/09/28 05:35:01;;;;;;;9.37;2.87;;;;;;;;;;5053952;28;20229;-83
2023/09/28 05:37:30;;;;;;;5.67;2.93;;;;;;;;;;5054074;28;20225;-83
2023/09/28 05:39:59;;;;;;;12.83;3.27;;;;;;;;;;5054825;28;20225;-83
2023/09/28 05:42:27;;;;;;;5.33;2.23;;;;;;;;;;5054107;28;20206;-81
2023/09/28 05:44:56;;;;;;;24.93;4.90;;;;;;;;;;5052878;28;20202;-81
2023/09/28 05:47:26;;;;;;;16.17;2.37;;;;;;;;;;5052436;28;20230;-81
2023/09/28 05:49:54;;;;;;;10.27;3.80;;;;;;;;;;5053920;28;20266;-81
2023/09/28 05:52:23;;;;;;;5.93;2.80;;;;;;;;;;5053316;28;20202;-81
2023/09/28 05:54:53;;;;;;;3.90;1.97;;;;;;;;;;5052965;28;20218;-81
2023/09/28 05:57:22;;;;;;;5.80;1.83;;;;;;;;;;5053394;28;20592;-81
2023/09/28 05:59:51;;;;;;;5.70;1.97;;;;;;;;;;5053408;28;20210;-80
2023/09/28 06:02:20;;;;;;;2.20;1.53;;;;;;;;;;5053521;28;20258;-80
2023/09/28 06:04:53;;;;;;;15.33;3.07;;;;;;;;;;5053612;28;20207;-80
2023/09/28 06:07:24;;;;;;;12.13;5.70;;;;;;;;;;5053611;28;20257;-80
2023/09/28 06:09:53;;;;;;;12.50;3.43;;;;;;;;;;5053323;28;20205;-80
2023/09/28 06:12:21;;;;;;;13.63;3.20;;;;;;;;;;5053075;28;20209;-81
2023/09/28 06:14:50;;;;;;;7.57;4.20;;;;;;;;;;5052957;28;20198;-80
2023/09/28 06:17:19;;;;;;;12.80;2.67;;;;;;;;;;5053828;28;20199;-80
2023/09/28 06:19:47;;;;;;;5.33;2.57;;;;;;;;;;5052943;28;20195;-80
2023/09/28 06:22:27;;;;;;;7.33;3.40;;;;;;;;;;5053342;28;20301;-80
2023/09/28 06:24:55;;;;;;;3.20;2.07;;;;;;;;;;5053274;28;20206;-80
2023/09/28 06:27:28;;;;;;;7.23;2.00;;;;;;;;;;5052703;28;20277;-80
2023/09/28 06:29:57;;;;;;;1.03;0.83;;;;;;;;;;5053144;28;20210;-80
2023/09/28 06:32:25;;;;;;;5.80;1.50;;;;;;;;;;5052929;28;20202;-83
2023/09/28 06:34:54;;;;;;;9.17;3.63;;;;;;;;;;5052410;28;20206;-83
2023/09/28 06:37:23;;;;;;;34.07;3.60;;;;;;;;;;5053220;28;20223;-83
2023/09/28 06:39:53;;;;;;;5.93;2.10;;;;;;;;;;5052905;28;20221;-83
2023/09/28 06:42:21;;;;;;;2.70;1.83;;;;;;;;;;5053303;28;20206;-84
2023/09/28 06:45:04;;;;;;;8.43;1.93;;;;;;;;;;5053064;28;20206;-83
2023/09/28 06:47:33;;;;;;;9.43;2.27;;;;;;;;;;5052881;28;20218;-84
2023/09/28 06:50:21;;;;;;;8.20;2.47;;;;;;;;;;5052548;28;20238;-83
2023/09/28 06:52:51;;;;;;;5.20;2.73;;;;;;;;;;5053508;28;20208;-84
2023/09/28 06:55:23;;;;;;;8.47;2.30;;;;;;;;;;5054231;28;20204;-85
2023/09/28 06:57:52;;;;;;;6.67;1.77;;;;;;;;;;5052662;28;20275;-86
2023/09/28 07:00:22;;;;;;;4.97;2.83;;;;;;;;;;5053209;28;20207;-83
2023/09/28 07:02:51;;;;;;;10.17;3.47;;;;;;;;;;5052724;28;20268;-83
2023/09/28 07:05:20;;;;;;;4.37;1.40;;;;;;;;;;5052414;28;20295;-83
2023/09/28 07:07:50;;;;;;;6.60;2.33;;;;;;;;;;5051708;28;20300;-84
2023/09/28 07:10:19;;;;;;;10.10;2.80;;;;;;;;;;5052505;28;20237;-84
2023/09/28 07:12:51;;;;;;;7.97;1.53;;;;;;;;;;5052738;28;20213;-84
2023/09/28 07:15:24;;;;;;;7.57;2.23;;;;;;;;;;5052189;28;20203;-83
2023/09/28 07:17:52;;;;;;;8.60;1.23;;;;;;;;;;5052067;28;20202;-83
2023/09/28 07:20:21;;;;;;;7.20;2.50;;;;;;;;;;5052206;28;20215;-83
2023/09/28 07:22:50;;;;;;;2.13;1.27;;;;;;;;;;5051865;28;20195;-83
2023/09/28 07:25:19;;;;;;;7.30;2.90;;;;;;;;;;5051555;28;20214;-82
2023/09/28 07:27:49;;;;;;;5.70;1.80;;;;;;;;;;5051943;28;20225;-84
2023/09/28 07:30:19;;;;;;;5.63;2.00;;;;;;;;;;5051919;28;20203;-84
2023/09/28 07:32:48;;;;;;;11.57;1.30;;;;;;;;;;5052762;28;20226;-84
2023/09/28 07:35:18;;;;;;;5.73;2.23;;;;;;;;;;5051861;28;20269;-84
2023/09/28 07:37:49;;;;;;;12.97;2.37;;;;;;;;;;5052245;28;20226;-84
2023/09/28 07:40:22;;;;;;;5.53;2.50;;;;;;;;;;5052512;28;20205;-84
2023/09/28 07:43:10;;;;;;;5.60;4.90;;;;;;;;;;5052341;28;20210;-83
2023/09/28 07:45:40;;;;;;;4.50;4.10;;;;;;;;;;5051870;28;20206;-84
2023/09/28 07:48:09;;;;;;;2.37;1.90;;;;;;;;;;5052233;28;20231;-84
2023/09/28 07:50:38;;;;;;;4.47;2.83;;;;;;;;;;5052683;28;20202;-84
2023/09/28 07:53:06;;;;;;;6.77;2.50;;;;;;;;;;5052185;28;20197;-83
2023/09/28 07:55:35;;;;;;;9.50;2.67;;;;;;;;;;5052505;28;20204;-84
2023/09/28 07:58:04;;;;;;;5.03;1.80;;;;;;;;;;5052388;28;20379;-84
2023/09/28 08:00:54;;;;;;;11.83;3.63;;;;;;;;;;5052171;28;20212;-83
2023/09/28 08:03:23;;;;;;;1.97;1.13;;;;;;;;;;5051707;28;20253;-84
2023/09/28 08:05:54;;;;;;;3.43;1.87;;;;;;;;;;5051683;28;20197;-80
2023/09/28 08:08:23;;;;;;;8.50;1.90;;;;;;;;;;5051561;28;20224;-80
2023/09/28 08:10:53;;;;;;;13.57;2.30;;;;;;;;;;5054314;28;20205;-80
2023/09/28 08:13:21;;;;;;;6.80;2.23;;;;;;;;;;5055014;28;20265;-80
2023/09/28 08:15:50;;;;;;;5.97;1.87;;;;;;;;;;5055695;28;20198;-80
2023/09/28 08:18:20;;;;;;;9.33;3.47;;;;;;;;;;5055102;28;20224;-80
2023/09/28 08:20:51;;;;;;;3.60;1.70;;;;;;;;;;5055297;28;20201;-81
2023/09/28 08:23:38;;;;;;;5.27;1.87;;;;;;;;;;5054732;28;20212;-81
2023/09/28 08:26:10;;;;;;;0.57;0.57;;;;;;;;;;5054984;28;20207;-81
2023/09/28 08:28:39;;;;;;;5.40;0.90;;;;;;;;;;5054667;28;20301;-80
2023/09/28 08:31:08;;;;;;;5.07;2.00;;;;;;;;;;5053772;28;20211;-81
2023/09/28 08:33:39;;;;;;;5.03;1.67;;;;;;;;;;5054718;28;20207;-80
2023/09/28 08:36:09;;;;;;;0.53;0.50;;;;;;;;;;5054771;28;20193;-80
2023/09/28 08:38:38;;;;;;;2.63;0.70;;;;;;;;;;5054644;28;20300;-80
2023/09/28 08:41:07;;;;;;;9.10;2.80;;;;;;;;;;5054395;28;20202;-80
2023/09/28 08:43:41;;;;;;;8.83;1.23;;;;;;;;;;5054668;28;20269;-80
2023/09/28 08:46:12;;;;;;;8.83;2.23;;;;;;;;;;5054865;28;20295;-80
2023/09/28 08:48:45;;;;;;;4.60;1.60;;;;;;;;;;5054263;28;20249;-80
2023/09/28 08:51:15;;;;;;;6.27;2.67;;;;;;;;;;5054982;28;20205;-80
2023/09/28 08:53:44;;;;;;;1.97;1.20;;;;;;;;;;5054757;28;20206;-80
2023/09/28 08:56:13;;;;;;;7.90;1.87;;;;;;;;;;5054868;28;20199;-81
2023/09/28 08:58:43;;;;;;;8.13;1.37;;;;;;;;;;5054082;28;20199;-81
2023/09/28 09:01:12;;;;;;;17.03;3.23;;;;;;;;;;5054405;28;20221;-81
2023/09/28 09:03:42;;;;;;;4.60;2.93;;;;;;;;;;5054011;28;20241;-80
2023/09/28 09:06:12;;;;;;;4.70;1.03;;;;;;;;;;5054235;28;20241;-83
2023/09/28 09:08:44;;;;;;;5.67;1.57;;;;;;;;;;5053571;28;20316;-84
2023/09/28 09:11:16;;;;;;;4.97;1.80;;;;;;;;;;5054318;28;20206;-80
2023/09/28 09:13:51;;;;;;;3.30;1.07;;;;;;;;;;5054007;28;20206;-81
2023/09/28 09:16:25;;;;;;;10.40;3.00;;;;;;;;;;5053720;28;20208;-81
2023/09/28 09:18:55;;;;;;;6.90;2.73;;;;;;;;;;5053579;28;20184;-84
2023/09/28 09:21:25;;;;;;;6.43;1.47;;;;;;;;;;5052823;28;20270;-86
2023/09/28 09:24:03;;;;;;;4.67;1.27;;;;;;;;;;5054390;28;20202;-86
2023/09/28 09:26:40;;;;;;;1.30;1.20;;;;;;;;;;5053831;28;20200;-87
2023/09/28 09:29:09;;;;;;;8.10;2.73;;;;;;;;;;5053048;28;20206;-83
2023/09/28 09:31:39;;;;;;;7.83;1.63;;;;;;;;;;5053405;28;20208;-83
2023/09/28 09:34:13;;;;;;;10.87;2.03;;;;;;;;;;5053781;28;20254;-83
2023/09/28 09:36:42;;;;;;;5.20;2.27;;;;;;;;;;5052908;28;20225;-83
2023/09/28 09:39:21;;;;;;;10.87;3.20;;;;;;;;;;5053617;28;20206;-83
2023/09/28 09:41:51;;;;;;;2.03;0.90;;;;;;;;;;5053393;28;20439;-83
2023/09/28 09:44:20;;;;;;;11.83;2.03;;;;;;;;;;5052964;28;20198;-83
2023/09/28 09:46:49;;;;;;;1.50;1.23;;;;;;;;;;5053016;28;20256;-83
2023/09/28 09:49:20;;;;;;;1.80;1.70;;;;;;;;;;5053430;28;20223;-83
2023/09/28 09:51:49;;;;;;;6.30;2.70;;;;;;;;;;5053590;28;20205;-85
2023/09/28 09:54:18;;;;;;;4.03;1.20;;;;;;;;;;5053400;28;20206;-83
2023/09/28 09:56:47;;;;;;;6.00;1.87;;;;;;;;;;5053064;28;20276;-84
2023/09/28 09:59:16;;;;;;;12.30;2.13;;;;;;;;;;5052709;28;20191;-83
2023/09/28 10:01:47;;;;;;;2.87;1.73;;;;;;;;;;5053020;28;20285;-83
2023/09/28 10:04:16;;;;;;;14.83;2.60;;;;;;;;;;5052167;28;20310;-83
2023/09/28 10:06:48;;;;;;;15.60;3.50;;;;;;;;;;5053249;28;20201;-83
2023/09/28 10:09:17;;;;;;;6.87;1.97;;;;;;;;;;5052562;28;20222;-83
2023/09/28 10:11:47;;;;;;;5.10;2.20;;;;;;;;;;5052901;28;20204;-83
2023/09/28 10:14:18;;;;;;;8.37;3.23;;;;;;;;;;5052587;28;20209;-82
2023/09/28 10:16:48;;;;;;;5.03;1.70;;;;;;;;;;5052820;28;20208;-83
2023/09/28 10:19:19;;;;;;;9.00;2.50;;;;;;;;;;5052596;28;20202;-83
2023/09/28 10:21:51;;;;;;;3.97;1.47;;;;;;;;;;5052577;28;20211;-83
2023/09/28 10:24:26;;;;;;;5.97;1.93;;;;;;;;;;5052570;28;20199;-84
2023/09/28 10:26:54;;;;;;;4.03;1.13;;;;;;;;;;5052651;28;20248;-84
2023/09/28 10:29:28;;;;;;;9.80;2.40;;;;;;;;;;5052027;28;20300;-83
2023/09/28 10:31:58;;;;;;;1.20;0.90;;;;;;;;;;5051899;28;20218;-83
2023/09/28 10:34:29;;;;;;;9.93;3.03;;;;;;;;;;5052514;28;20213;-82
2023/09/28 10:37:18;;;;;;;2.93;1.83;;;;;;;;;;5052299;28;20222;-83
2023/09/28 10:39:52;;;;;;;5.93;1.90;;;;;;;;;;5052383;28;20202;-88
2023/09/28 10:42:21;;;;;;;4.47;2.50;;;;;;;;;;5052008;28;20207;-85
2023/09/28 10:44:51;;;;;;;8.67;2.33;;;;;;;;;;5052368;28;20291;-85
2023/09/28 10:47:20;;;;;;;8.90;1.73;;;;;;;;;;5053172;28;20208;-85
2023/09/28 10:49:51;;;;;;;4.80;1.87;;;;;;;;;;5052420;28;20279;-86
2023/09/28 10:52:20;;;;;;;3.60;2.57;;;;;;;;;;5052707;28;20198;-86
2023/09/28 10:54:49;;;;;;;3.90;1.43;;;;;;;;;;5053129;28;20260;-86
2023/09/28 10:57:19;;;;;;;5.23;2.27;;;;;;;;;;5052899;28;20206;-86
2023/09/28 10:59:48;;;;;;;3.97;2.30;;;;;;;;;;5051807;28;20199;-86
2023/09/28 11:02:16;;;;;;;5.60;1.53;;;;;;;;;;5052699;28;20210;-86
2023/09/28 11:04:45;;;;;;;4.80;2.00;;;;;;;;;;5052838;28;20199;-86
2023/09/28 11:07:20;;;;;;;5.13;2.97;;;;;;;;;;5052210;28;20225;-85
2023/09/28 11:09:49;;;;;;;1.50;0.97;;;;;;;;;;5051627;28;20228;-86
2023/09/28 11:12:19;;;;;;;11.17;2.20;;;;;;;;;;5051964;28;20197;-86
2023/09/28 11:14:47;;;;;;;1.23;0.40;;;;;;;;;;5052245;28;20204;-86
2023/09/28 11:17:16;;;;;;;4.57;1.40;;;;;;;;;;5051693;28;20304;-86
2023/09/28 11:19:45;;;;;;;8.73;2.17;;;;;;;;;;5051692;28;20268;-86
2023/09/28 11:22:15;;;;;;;12.17;1.67;;;;;;;;;;5052039;28;20229;-86
2023/09/28 11:24:44;;;;;;;3.50;1.67;;;;;;;;;;5052138;28;20200;-86
2023/09/28 11:27:13;;;;;;;4.40;2.03;;;;;;;;;;5052130;28;20205;-86
2023/09/28 11:29:43;;;;;;;5.60;2.83;;;;;;;;;;5051849;28;20228;-86
2023/09/28 11:32:12;;;;;;;6.57;1.70;;;;;;;;;;5052386;28;20200;-88
2023/09/28 11:34:40;;;;;;;1.30;0.83;;;;;;;;;;5051644;28;20204;-84
2023/09/28 11:37:12;;;;;;;3.23;1.10;;;;;;;;;;5051650;28;20218;-84
2023/09/28 11:39:40;;;;;;;5.87;1.20;;;;;;;;;;5051707;28;20201;-84
2023/09/28 11:42:11;;;;;;;2.83;1.70;;;;;;;;;;5051784;28;20297;-84
2023/09/28 11:44:40;;;;;;;4.83;1.67;;;;;;;;;;5053043;28;20199;-85
2023/09/28 11:47:09;;;;;;;7.53;1.73;;;;;;;;;;5055763;28;20206;-84
2023/09/28 11:49:43;;;;;;;6.37;1.90;;;;;;;;;;5055367;28;20248;-84
2023/09/28 11:52:14;;;;;;;8.73;2.50;;;;;;;;;;5055734;28;20295;-84
2023/09/28 11:54:42;;;;;;;6.63;1.47;;;;;;;;;;5055537;28;20211;-84
2023/09/28 11:57:11;;;;;;;3.53;2.70;;;;;;;;;;5055927;28;20256;-84
2023/09/28 11:59:40;;;;;;;2.20;0.83;;;;;;;;;;5055504;28;20295;-85
2023/09/28 12:02:10;;;;;;;4.80;1.57;;;;;;;;;;5055724;28;20208;-84
2023/09/28 12:04:39;;;;;;;13.10;1.83;;;;;;;;;;5055118;28;20282;-85
2023/09/28 12:07:08;;;;;;;2.73;1.60;;;;;;;;;;5055658;28;20206;-84
2023/09/28 12:09:36;;;;;;;7.30;1.93;;;;;;;;;;5055156;28;20222;-85
2023/09/28 12:12:18;;;;;;;4.23;2.27;;;;;;;;;;5055474;28;20238;-84
2023/09/28 12:14:48;;;;;;;6.80;2.00;;;;;;;;;;5054928;28;20211;-84
2023/09/28 12:17:18;;;;;;;4.90;3.03;;;;;;;;;;5055052;28;20205;-85
2023/09/28 12:19:47;;;;;;;4.73;1.87;;;;;;;;;;5055054;28;20202;-85
2023/09/28 12:22:15;;;;;;;3.10;0.87;;;;;;;;;;5055640;28;20197;-85
2023/09/28 12:24:45;;;;;;;1.80;1.33;;;;;;;;;;5054542;28;20203;-85
2023/09/28 12:27:13;;;;;;;2.90;1.37;;;;;;;;;;5055422;28;20226;-84
2023/09/28 12:29:42;;;;;;;2.27;2.07;;;;;;;;;;5054677;28;20228;-81
2023/09/28 12:32:10;;;;;;;6.30;1.53;;;;;;;;;;5055148;28;20205;-81
2023/09/28 12:34:40;;;;;;;1.40;1.30;;;;;;;;;;5054929;28;20201;-81
2023/09/28 12:37:09;;;;;;;1.50;1.40;;;;;;;;;;5055020;28;20224;-81
2023/09/28 12:39:38;;;;;;;5.23;1.40;;;;;;;;;;5054938;28;20209;-81
2023/09/28 12:42:06;;;;;;;1.83;1.50;;;;;;;;;;5054897;28;20202;-81
2023/09/28 12:44:35;;;;;;;0.67;0.63;;;;;;;;;;5054935;28;20203;-82
2023/09/28 12:47:04;;;;;;;5.73;1.33;;;;;;;;;;5054964;28;20205;-81
2023/09/28 12:49:32;;;;;;;3.87;1.37;;;;;;;;;;5054264;28;20259;-84
2023/09/28 12:52:02;;;;;;;1.30;1.00;;;;;;;;;;5054304;28;20205;-84
2023/09/28 12:54:32;;;;;;;3.83;1.43;;;;;;;;;;5054499;28;20210;-85
2023/09/28 12:57:01;;;;;;;4.93;1.07;;;;;;;;;;5054105;28;20207;-84
2023/09/28 12:59:32;;;;;;;3.70;0.83;;;;;;;;;;5053972;28;20213;-84
2023/09/28 13:02:05;;;;;;;1.80;1.30;;;;;;;;;;5053907;28;20205;-84
2023/09/28 13:04:34;;;;;;;3.40;1.17;;;;;;;;;;5053861;28;20299;-84
2023/09/28 13:07:04;;;;;;;2.97;1.07;;;;;;;;;;5054481;28;20236;-84
2023/09/28 13:09:33;;;;;;;4.23;2.20;;;;;;;;;;5054159;28;20229;-84
2023/09/28 13:12:03;;;;;;;5.30;2.07;;;;;;;;;;5054272;28;20206;-84
2023/09/28 13:14:34;;;;;;;6.27;1.80;;;;;;;;;;5054249;28;20209;-84
2023/09/28 13:17:06;;;;;;;1.67;0.80;;;;;;;;;;5054183;28;20187;-84
2023/09/28 13:19:36;;;;;;;9.10;2.37;;;;;;;;;;5053690;28;20254;-84
2023/09/28 13:22:06;;;;;;;2.87;1.37;;;;;;;;;;5053914;28;20215;-85
2023/09/28 13:24:34;;;;;;;12.23;2.83;;;;;;;;;;5054181;28;20234;-84
2023/09/28 13:27:05;;;;;;;10.13;2.47;;;;;;;;;;5054126;28;20207;-84
2023/09/28 13:29:34;;;;;;;5.67;2.10;;;;;;;;;;5053375;28;20201;-84
2023/09/28 13:32:05;;;;;;;3.50;1.13;;;;;;;;;;5054036;28;20323;-84
2023/09/28 13:34:35;;;;;;;2.93;1.60;;;;;;;;;;5053773;28;20233;-84
2023/09/28 13:37:04;;;;;;;4.20;1.93;;;;;;;;;;5053481;28;20296;-84
2023/09/28 13:39:36;;;;;;;13.73;3.27;;;;;;;;;;5052858;28;20194;-84
2023/09/28 13:42:05;;;;;;;0.93;0.87;;;;;;;;;;5053865;28;20204;-84
2023/09/28 13:44:34;;;;;;;2.37;0.97;;;;;;;;;;5053686;28;20202;-84
2023/09/28 13:47:05;;;;;;;4.63;1.30;;;;;;;;;;5053015;28;20195;-84
2023/09/28 13:49:34;;;;;;;3.20;1.10;;;;;;;;;;5053367;28;20243;-84
2023/09/28 13:52:03;;;;;;;4.63;1.37;;;;;;;;;;5052989;28;20196;-84
2023/09/28 13:54:32;;;;;;;8.80;5.00;;;;;;;;;;5053586;28;20198;-84
2023/09/28 13:57:07;;;;;;;4.70;2.10;;;;;;;;;;5052973;28;20205;-84
2023/09/28 13:59:37;;;;;;;3.97;1.20;;;;;;;;;;5052831;28;20220;-84
2023/09/28 14:02:07;;;;;;;3.70;1.73;;;;;;;;;;5052854;28;20439;-84
2023/09/28 14:04:36;;;;;;;12.87;2.57;;;;;;;;;;5052471;28;20205;-84
2023/09/28 14:07:05;;;;;;;7.23;2.60;;;;;;;;;;5051490;28;20210;-84
2023/09/28 14:09:33;;;;;;;12.00;2.23;;;;;;;;;;5052305;28;20196;-84
2023/09/28 14:12:03;;;;;;;10.47;2.67;;;;;;;;;;5052124;28;20216;-83
2023/09/28 14:14:32;;;;;;;6.30;2.70;;;;;;;;;;5051571;28;20223;-82
2023/09/28 14:17:04;;;;;;;5.23;2.40;;;;;;;;;;5052049;28;20205;-82
2023/09/28 14:19:38;;;;;;;4.37;1.47;;;;;;;;;;5052455;28;20198;-82
2023/09/28 14:22:07;;;;;;;6.13;1.37;;;;;;;;;;5052990;28;20259;-82
2023/09/28 14:24:36;;;;;;;3.30;1.03;;;;;;;;;;5052362;28;20202;-82
2023/09/28 14:27:06;;;;;;;4.23;1.70;;;;;;;;;;5052590;28;20209;-82
2023/09/28 14:29:34;;;;;;;8.23;2.40;;;;;;;;;;5052983;28;20201;-82
2023/09/28 14:32:03;;;;;;;4.37;1.50;;;;;;;;;;5052150;28;20246;-82
2023/09/28 14:34:31;;;;;;;2.63;0.70;;;;;;;;;;5052255;28;20197;-82
2023/09/28 14:37:00;;;;;;;4.23;1.13;;;;;;;;;;5052393;28;20232;-82
2023/09/28 14:39:28;;;;;;;3.33;0.83;;;;;;;;;;5052657;28;20214;-82
2023/09/28 14:41:57;;;;;;;1.80;0.60;;;;;;;;;;5052242;28;20420;-82
2023/09/28 14:44:27;;;;;;;3.27;1.50;;;;;;;;;;5052079;28;20209;-82
2023/09/28 14:46:56;;;;;;;1.03;0.50;;;;;;;;;;5052299;28;20204;-82
2023/09/28 14:49:24;;;;;;;7.53;2.23;;;;;;;;;;5052350;28;20207;-83
2023/09/28 14:51:53;;;;;;;2.30;1.13;;;;;;;;;;5051709;28;20295;-82
2023/09/28 14:54:21;;;;;;;6.40;1.67;;;;;;;;;;5051927;28;20210;-82
2023/09/28 14:56:50;;;;;;;1.23;1.07;;;;;;;;;;5051982;28;20229;-82
2023/09/28 14:59:18;;;;;;;5.50;1.90;;;;;;;;;;5051994;28;20194;-82